Time;durP1;ratioP1;P1;durP2;ratioP2;P2;SDS_P1;SDS_P2;PMS_P1;PMS_P2;Temp;Humidity;BMP_temperature;BMP_pressure;BME280_temperature;BME280_humidity;BME280_pressure;Samples;Min_cycle;Max_cycle;Signal;HPM_P1;HPM_P2
2022/01/05 00:00:15;;;;;;;7.95;1.90;;;6.00;73.00;;;;;;5068984;28;20686;-73
2022/01/05 00:02:41;;;;;;;4.60;1.80;;;6.00;73.00;;;;;;5051450;28;20480;-73
2022/01/05 00:05:08;;;;;;;6.28;2.33;;;6.00;73.10;;;;;;5068900;28;20036;-72
2022/01/05 00:07:35;;;;;;;7.90;2.60;;;6.00;73.00;;;;;;5068204;28;20032;-74
2022/01/05 00:10:02;;;;;;;7.90;2.60;;;6.00;73.00;;;;;;5067885;28;20301;-73
2022/01/05 00:12:28;;;;;;;8.30;2.50;;;5.90;72.80;;;;;;5067328;28;20538;-73
2022/01/05 00:14:54;;;;;;;13.70;2.30;;;5.90;72.90;;;;;;5065981;28;20028;-73
2022/01/05 00:17:19;;;;;;;5.38;1.90;;;5.90;72.90;;;;;;5048827;28;20040;-74
2022/01/05 00:19:45;;;;;;;6.78;2.55;;;5.90;72.90;;;;;;5049569;28;20032;-73
2022/01/05 00:22:12;;;;;;;6.38;1.70;;;5.80;72.70;;;;;;5066259;28;20066;-73
2022/01/05 00:24:38;;;;;;;3.75;2.20;;;5.80;72.80;;;;;;5066513;28;20029;-73
2022/01/05 00:27:04;;;;;;;7.80;1.92;;;5.80;72.80;;;;;;5065898;28;20072;-73
2022/01/05 00:29:30;;;;;;;4.55;1.50;;;5.80;72.80;;;;;;5048504;28;20028;-73
2022/01/05 00:31:57;;;;;;;7.97;2.47;;;5.70;72.60;;;;;;5066370;28;20036;-74
2022/01/05 00:34:22;;;;;;;7.55;1.80;;;5.70;72.70;;;;;;5065984;28;20112;-73
2022/01/05 00:36:48;;;;;;;7.28;2.03;;;5.70;72.70;;;;;;5066159;28;20123;-73
2022/01/05 00:39:14;;;;;;;8.05;2.50;;;5.70;72.70;;;;;;5066389;28;20025;-73
2022/01/05 00:41:41;;;;;;;5.45;1.90;;;5.70;72.70;;;;;;5066599;28;20047;-73
2022/01/05 00:44:06;;;;;;;7.55;2.25;;;5.70;72.80;;;;;;5065734;28;20028;-73
2022/01/05 00:46:32;;;;;;;8.63;2.10;;;5.70;72.80;;;;;;5066019;28;20079;-73
2022/01/05 00:48:58;;;;;;;9.30;2.33;;;5.70;72.80;;;;;;5066085;28;20047;-73
2022/01/05 00:51:24;;;;;;;7.38;2.10;;;5.70;72.80;;;;;;5066226;28;20463;-74
2022/01/05 00:53:50;;;;;;;6.63;2.17;;;5.60;72.60;;;;;;5065961;28;20029;-72
2022/01/05 00:56:18;;;;;;;10.27;3.45;;;5.60;72.60;;;;;;5048121;28;20514;-73
2022/01/05 00:58:43;;;;;;;11.20;2.45;;;5.60;72.60;;;;;;5059717;28;20033;-72
2022/01/05 01:01:09;;;;;;;8.38;3.15;;;5.60;72.60;;;;;;5028292;28;20032;-72
2022/01/05 01:03:36;;;;;;;8.20;2.28;;;5.60;72.60;;;;;;5032316;28;20128;-74
2022/01/05 01:06:02;;;;;;;6.90;2.55;;;5.60;72.60;;;;;;5045971;28;20128;-72
2022/01/05 01:08:28;;;;;;;6.80;2.60;;;5.60;73.10;;;;;;5045429;28;20516;-74
2022/01/05 01:10:54;;;;;;;8.10;2.08;;;5.60;72.60;;;;;;5028015;28;20056;-74
2022/01/05 01:13:20;;;;;;;7.07;2.30;;;5.60;72.60;;;;;;5052351;28;20047;-74
2022/01/05 01:15:48;;;;;;;7.95;2.00;;;5.60;72.60;;;;;;5051779;28;20022;-73
2022/01/05 01:18:15;;;;;;;7.55;2.10;;;5.60;72.60;;;;;;5052650;28;20028;-74
2022/01/05 01:20:41;;;;;;;6.90;2.13;;;5.60;72.60;;;;;;5052705;28;20472;-72
2022/01/05 01:23:08;;;;;;;7.28;2.20;;;5.60;72.60;;;;;;5052996;28;20069;-74
2022/01/05 01:25:34;;;;;;;8.15;2.78;;;5.60;72.60;;;;;;5034247;28;20040;-74
2022/01/05 01:28:00;;;;;;;6.20;2.22;;;5.60;72.60;;;;;;5051916;28;20037;-74
2022/01/05 01:30:27;;;;;;;7.60;2.03;;;5.60;72.60;;;;;;5052137;28;20032;-74
2022/01/05 01:32:53;;;;;;;8.52;1.95;;;5.60;72.60;;;;;;5052571;28;20036;-75
2022/01/05 01:35:19;;;;;;;6.20;2.20;;;5.60;72.60;;;;;;5052771;28;20028;-73
2022/01/05 01:37:45;;;;;;;9.57;2.17;;;5.60;72.60;;;;;;5034022;28;20024;-74
2022/01/05 01:40:11;;;;;;;7.15;2.35;;;5.70;72.80;;;;;;5052607;28;20630;-76
2022/01/05 01:42:37;;;;;;;9.63;2.55;;;5.70;72.80;;;;;;5034351;28;20029;-74
2022/01/05 01:45:04;;;;;;;8.02;2.15;;;5.60;72.60;;;;;;5050169;28;20036;-73
2022/01/05 01:47:30;;;;;;;10.93;2.20;;;5.70;72.70;;;;;;5052427;28;20091;-73
2022/01/05 01:49:56;;;;;;;6.88;2.45;;;5.70;72.70;;;;;;5052177;28;20045;-73
2022/01/05 01:52:22;;;;;;;4.55;1.85;;;5.70;72.70;;;;;;5052619;28;20047;-74
2022/01/05 01:54:48;;;;;;;11.20;2.42;;;5.70;72.70;;;;;;5052408;28;20515;-74
2022/01/05 01:57:14;;;;;;;15.65;2.50;;;5.70;72.70;;;;;;5052384;28;20124;-73
2022/01/05 01:59:42;;;;;;;8.88;2.95;;;5.70;72.60;;;;;;5057192;28;20204;-74
2022/01/05 02:02:09;;;;;;;8.18;2.17;;;5.70;72.60;;;;;;5072418;28;20039;-73
2022/01/05 02:04:36;;;;;;;6.28;1.90;;;5.70;72.70;;;;;;5056495;28;20048;-74
2022/01/05 02:07:03;;;;;;;6.40;1.92;;;5.70;72.60;;;;;;5052376;28;20048;-73
2022/01/05 02:09:29;;;;;;;6.10;2.47;;;5.70;72.60;;;;;;5042648;28;20408;-72
2022/01/05 02:11:55;;;;;;;6.30;2.47;;;5.70;72.60;;;;;;5052135;28;20031;-71
2022/01/05 02:14:21;;;;;;;8.75;2.03;;;5.70;72.60;;;;;;5047650;28;20039;-72
2022/01/05 02:16:47;;;;;;;5.03;3.08;;;5.70;72.60;;;;;;5071860;28;20029;-73
2022/01/05 02:19:14;;;;;;;11.95;2.67;;;5.70;72.60;;;;;;5072029;28;20119;-72
2022/01/05 02:21:42;;;;;;;5.68;2.05;;;5.70;72.60;;;;;;5071883;28;20047;-72
2022/01/05 02:24:10;;;;;;;8.63;2.20;;;5.70;72.60;;;;;;5068974;28;20032;-72
2022/01/05 02:26:38;;;;;;;12.27;2.55;;;5.70;72.60;;;;;;5068247;28;20119;-72
2022/01/05 02:29:05;;;;;;;7.53;2.13;;;5.70;72.60;;;;;;5050502;28;20032;-72
2022/01/05 02:31:31;;;;;;;6.43;1.98;;;5.70;73.20;;;;;;5069126;28;20058;-71
2022/01/05 02:33:57;;;;;;;14.40;2.88;;;5.70;72.70;;;;;;5069997;28;20036;-73
2022/01/05 02:36:23;;;;;;;8.88;1.92;;;5.70;72.70;;;;;;5070158;28;20090;-72
2022/01/05 02:38:51;;;;;;;9.23;2.35;;;5.60;72.50;;;;;;5068257;28;20500;-72
2022/01/05 02:41:18;;;;;;;9.63;2.58;;;5.60;72.50;;;;;;5070230;28;20032;-72
2022/01/05 02:43:45;;;;;;;9.40;2.55;;;5.70;72.60;;;;;;5069484;28;20506;-72
2022/01/05 02:46:22;;;;;;;5.82;1.85;;;5.70;72.60;;;;;;5051254;28;20132;-72
2022/01/05 02:48:51;;;;;;;8.57;2.50;;;5.70;72.70;;;;;;5072402;28;20495;-72
2022/01/05 02:51:17;;;;;;;10.85;1.90;;;5.60;72.50;;;;;;5073109;28;20364;-72
2022/01/05 02:53:43;;;;;;;7.20;2.10;;;5.60;72.40;;;;;;5055084;28;20368;-72
2022/01/05 02:56:10;;;;;;;8.07;3.83;;;5.60;72.40;;;;;;5055610;28;20032;-72
2022/01/05 02:58:36;;;;;;;4.25;1.70;;;5.60;72.40;;;;;;5071658;28;20024;-72
2022/01/05 03:01:02;;;;;;;8.13;1.52;;;5.60;72.40;;;;;;5073191;28;20043;-74
2022/01/05 03:03:28;;;;;;;9.75;2.05;;;5.60;72.40;;;;;;5072694;28;20020;-73
2022/01/05 03:05:54;;;;;;;11.15;3.00;;;5.60;72.40;;;;;;5055141;28;20391;-74
2022/01/05 03:08:20;;;;;;;8.65;1.85;;;5.60;72.50;;;;;;5071319;28;20131;-74
2022/01/05 03:10:47;;;;;;;5.82;1.67;;;5.60;72.50;;;;;;5071276;28;20033;-74
2022/01/05 03:13:13;;;;;;;5.53;1.50;;;5.60;72.50;;;;;;5071621;28;20036;-73
2022/01/05 03:15:40;;;;;;;6.35;2.00;;;5.60;72.50;;;;;;5072303;28;20086;-74
2022/01/05 03:18:07;;;;;;;7.72;2.35;;;5.60;72.50;;;;;;5072434;28;20028;-74
2022/01/05 03:20:34;;;;;;;3.63;1.52;;;5.60;72.50;;;;;;5074155;28;20035;-74
2022/01/05 03:23:03;;;;;;;9.25;1.92;;;5.60;72.50;;;;;;5075490;28;20033;-75
2022/01/05 03:25:30;;;;;;;6.93;1.58;;;5.60;72.50;;;;;;5074286;28;20039;-74
2022/01/05 03:27:56;;;;;;;3.97;1.20;;;5.60;72.50;;;;;;5075611;28;20043;-74
2022/01/05 03:30:31;;;;;;;7.57;2.38;;;5.50;72.30;;;;;;5074930;28;20036;-74
2022/01/05 03:35:26;;;;;;;4.82;1.58;;;5.50;72.30;;;;;;5073255;28;20164;-74
2022/01/05 03:37:52;;;;;;;6.47;2.13;;;5.50;72.30;;;;;;5072589;28;20514;-74
2022/01/05 03:40:18;;;;;;;6.97;2.25;;;5.50;72.40;;;;;;5072765;28;20119;-75
2022/01/05 03:42:45;;;;;;;10.50;1.90;;;5.50;72.40;;;;;;5072583;28;20150;-73
2022/01/05 03:45:11;;;;;;;5.20;1.70;;;5.50;72.40;;;;;;5072033;28;20032;-74
2022/01/05 03:47:37;;;;;;;6.15;1.73;;;5.50;72.40;;;;;;5072318;28;20399;-74
2022/01/05 03:50:03;;;;;;;5.45;1.90;;;5.50;72.40;;;;;;5072103;28;20024;-74
2022/01/05 03:52:29;;;;;;;9.00;2.05;;;5.50;72.40;;;;;;5072761;28;20028;-73
2022/01/05 03:54:55;;;;;;;5.07;1.75;;;5.50;72.40;;;;;;5071870;28;20442;-75
2022/01/05 03:57:21;;;;;;;6.38;1.90;;;5.50;72.40;;;;;;5071859;28;20058;-73
2022/01/05 03:59:47;;;;;;;7.60;1.80;;;5.50;72.40;;;;;;5072039;28;20475;-74
2022/01/05 04:02:13;;;;;;;12.68;2.33;;;5.50;72.40;;;;;;5072011;28;20029;-73
2022/01/05 04:04:39;;;;;;;3.78;1.67;;;5.50;72.40;;;;;;5071674;28;20032;-74
2022/01/05 04:07:05;;;;;;;4.72;1.65;;;5.40;72.20;;;;;;5071379;28;20040;-75
2022/01/05 04:09:31;;;;;;;7.72;2.00;;;5.40;72.20;;;;;;5071789;28;20472;-73
2022/01/05 04:11:57;;;;;;;9.90;1.60;;;5.40;72.30;;;;;;5071953;28;20089;-74
2022/01/05 04:14:23;;;;;;;6.75;2.72;;;5.40;72.20;;;;;;5037176;28;20103;-74
2022/01/05 04:16:49;;;;;;;8.70;1.92;;;5.40;72.30;;;;;;5070864;28;20029;-73
2022/01/05 04:19:15;;;;;;;5.13;1.15;;;5.40;72.30;;;;;;5071364;28;20040;-73
2022/01/05 04:21:41;;;;;;;6.07;2.55;;;5.40;72.30;;;;;;5071170;28;20024;-73
2022/01/05 04:24:07;;;;;;;8.65;1.88;;;5.40;72.30;;;;;;5071428;28;20024;-74
2022/01/05 04:26:33;;;;;;;8.15;2.08;;;5.40;72.30;;;;;;5071284;28;20036;-73
2022/01/05 04:28:58;;;;;;;6.03;1.35;;;5.40;72.30;;;;;;5071083;28;20040;-73
2022/01/05 04:31:24;;;;;;;4.88;1.60;;;5.30;72.10;;;;;;5070416;28;20043;-74
2022/01/05 04:33:50;;;;;;;6.80;2.38;;;5.30;72.20;;;;;;5071809;28;20044;-73
2022/01/05 04:36:16;;;;;;;9.90;2.28;;;5.30;72.20;;;;;;5071026;28;20187;-73
2022/01/05 04:38:42;;;;;;;8.60;1.85;;;5.30;72.20;;;;;;5071005;28;20493;-73
2022/01/05 04:41:08;;;;;;;7.63;1.80;;;5.30;72.20;;;;;;5071139;28;20025;-72
2022/01/05 04:43:34;;;;;;;4.28;1.98;;;5.30;72.20;;;;;;5036866;28;20150;-73
2022/01/05 04:46:00;;;;;;;7.22;3.15;;;5.30;72.20;;;;;;5071236;28;20473;-72
2022/01/05 04:48:27;;;;;;;7.35;2.08;;;5.20;72.10;;;;;;5070127;28;20055;-73
2022/01/05 04:50:53;;;;;;;6.10;1.83;;;5.20;72.10;;;;;;5071001;28;20031;-73
2022/01/05 04:53:19;;;;;;;6.50;1.73;;;5.20;72.10;;;;;;5071221;28;20298;-73
2022/01/05 04:55:45;;;;;;;7.13;2.65;;;5.20;72.20;;;;;;5069896;28;20024;-73
2022/01/05 04:58:11;;;;;;;5.07;1.83;;;5.20;72.10;;;;;;5070918;28;20596;-72
2022/01/05 05:00:37;;;;;;;9.45;1.88;;;5.20;72.10;;;;;;5070919;28;20334;-73
2022/01/05 05:03:03;;;;;;;9.80;2.40;;;5.20;72.60;;;;;;5071529;28;20024;-73
2022/01/05 05:05:30;;;;;;;8.82;1.90;;;5.20;72.10;;;;;;5069184;28;20507;-73
2022/01/05 05:07:57;;;;;;;10.48;2.63;;;5.20;72.10;;;;;;5070825;28;20047;-73
2022/01/05 05:10:24;;;;;;;7.78;2.42;;;5.20;72.10;;;;;;5070908;28;20046;-74
2022/01/05 05:12:50;;;;;;;3.78;1.98;;;5.20;72.10;;;;;;5071085;28;20040;-73
2022/01/05 05:15:16;;;;;;;7.20;2.00;;;5.20;72.10;;;;;;5070670;28;20416;-73
2022/01/05 05:17:42;;;;;;;9.00;1.95;;;5.20;72.10;;;;;;5070337;28;20040;-74
2022/01/05 05:20:08;;;;;;;6.32;1.60;;;5.20;72.10;;;;;;5069919;28;20031;-74
2022/01/05 05:22:35;;;;;;;5.75;1.85;;;5.20;72.10;;;;;;5070838;28;20029;-73
2022/01/05 05:25:02;;;;;;;9.55;1.88;;;5.20;72.10;;;;;;5070923;28;20035;-73
2022/01/05 05:27:28;;;;;;;6.63;1.92;;;5.20;72.10;;;;;;5070741;28;20560;-73
2022/01/05 05:29:54;;;;;;;4.65;2.40;;;5.20;72.10;;;;;;5070407;28;20029;-72
2022/01/05 05:32:20;;;;;;;9.18;2.28;;;5.20;72.10;;;;;;5071234;28;20383;-73
2022/01/05 05:34:46;;;;;;;9.70;3.42;;;5.20;72.10;;;;;;5070848;28;20024;-73
2022/01/05 05:37:15;;;;;;;5.68;2.15;;;5.20;72.10;;;;;;5070819;28;20028;-73
2022/01/05 05:39:41;;;;;;;12.05;2.33;;;5.20;72.10;;;;;;5069179;28;20021;-72
2022/01/05 05:42:08;;;;;;;9.13;2.92;;;5.10;71.90;;;;;;5070401;28;20058;-73
2022/01/05 05:44:34;;;;;;;5.60;1.77;;;5.20;72.10;;;;;;5069140;28;20028;-73
2022/01/05 05:47:01;;;;;;;8.65;1.80;;;5.20;72.10;;;;;;5068502;28;20052;-73
2022/01/05 05:49:27;;;;;;;10.60;2.58;;;5.10;71.90;;;;;;5066043;28;20373;-74
2022/01/05 05:51:53;;;;;;;5.30;2.60;;;5.10;71.90;;;;;;5066794;28;20120;-73
2022/01/05 05:54:19;;;;;;;5.70;1.83;;;5.10;71.90;;;;;;5066787;28;20543;-73
2022/01/05 05:56:46;;;;;;;5.13;1.60;;;5.10;71.90;;;;;;5065688;28;20031;-73
2022/01/05 05:59:12;;;;;;;9.25;2.20;;;5.10;71.90;;;;;;5054896;28;20116;-73
2022/01/05 06:01:38;;;;;;;7.63;2.17;;;5.10;71.90;;;;;;5033147;28;20112;-73
2022/01/05 06:04:04;;;;;;;9.13;2.30;;;5.10;71.90;;;;;;5046163;28;20024;-73
2022/01/05 06:06:30;;;;;;;9.10;2.40;;;5.10;71.90;;;;;;5069369;28;20037;-73
2022/01/05 06:08:56;;;;;;;7.78;1.67;;;5.10;71.90;;;;;;5068821;28;20448;-73
2022/01/05 06:11:22;;;;;;;6.47;1.85;;;5.10;71.90;;;;;;5068454;28;20029;-73
2022/01/05 06:13:50;;;;;;;8.90;2.42;;;5.10;71.90;;;;;;5067383;28;20056;-73
2022/01/05 06:16:16;;;;;;;8.93;2.20;;;5.10;71.90;;;;;;5050638;28;20439;-72
2022/01/05 06:18:42;;;;;;;6.28;2.20;;;5.10;71.90;;;;;;5068447;28;20094;-73
2022/01/05 06:21:08;;;;;;;6.63;2.08;;;5.10;71.90;;;;;;5068246;28;20037;-73
2022/01/05 06:23:34;;;;;;;7.45;2.00;;;5.10;71.90;;;;;;5068494;28;20040;-74
2022/01/05 06:26:00;;;;;;;8.73;2.50;;;5.00;71.70;;;;;;5068708;28;20472;-74
2022/01/05 06:28:26;;;;;;;4.30;1.90;;;5.10;71.90;;;;;;5049992;28;20040;-73
2022/01/05 06:30:52;;;;;;;5.70;1.85;;;5.10;71.90;;;;;;5067820;28;20400;-73
2022/01/05 06:33:18;;;;;;;8.43;2.45;;;5.10;71.90;;;;;;5068735;28;20094;-72
2022/01/05 06:35:44;;;;;;;8.43;2.33;;;5.00;71.70;;;;;;5050979;28;20438;-74
2022/01/05 06:38:10;;;;;;;6.72;1.63;;;5.00;71.70;;;;;;5052971;28;20486;-74
2022/01/05 06:40:36;;;;;;;12.90;2.25;;;5.10;71.90;;;;;;5071520;28;20036;-74
2022/01/05 06:43:03;;;;;;;8.32;2.60;;;5.10;72.40;;;;;;5058242;28;20400;-75
2022/01/05 06:45:29;;;;;;;15.13;3.25;;;5.10;71.90;;;;;;5070160;28;20498;-74
2022/01/05 06:47:55;;;;;;;17.08;2.78;;;5.10;71.80;;;;;;5047112;28;20110;-72
2022/01/05 06:50:21;;;;;;;10.35;2.50;;;5.10;71.80;;;;;;5060654;28;20476;-71
2022/01/05 06:52:47;;;;;;;7.13;2.40;;;5.10;71.90;;;;;;5082775;28;20028;-72
2022/01/05 06:55:13;;;;;;;11.60;2.30;;;5.20;72.40;;;;;;5076662;28;20021;-72
2022/01/05 06:57:41;;;;;;;9.57;2.97;;;5.30;72.50;;;;;;5064222;28;20048;-73
2022/01/05 07:00:09;;;;;;;10.90;3.03;;;5.40;72.60;;;;;;5086264;28;20020;-73
2022/01/05 07:02:35;;;;;;;8.52;2.10;;;5.40;72.50;;;;;;5076820;28;20037;-72
2022/01/05 07:05:01;;;;;;;9.45;2.63;;;5.50;73.10;;;;;;5047808;28;20028;-72
2022/01/05 07:07:28;;;;;;;9.98;2.72;;;5.50;72.60;;;;;;5046699;28;20484;-72
2022/01/05 07:09:54;;;;;;;7.80;1.98;;;5.50;72.70;;;;;;5046831;28;20118;-72
2022/01/05 07:12:20;;;;;;;12.52;2.50;;;5.50;72.70;;;;;;5047908;28;20820;-74
2022/01/05 07:14:46;;;;;;;5.80;1.70;;;5.60;72.90;;;;;;5048079;28;20201;-73
2022/01/05 07:17:12;;;;;;;6.00;2.00;;;5.60;72.90;;;;;;5048807;28;20033;-73
2022/01/05 07:19:38;;;;;;;11.95;3.42;;;5.60;72.90;;;;;;5080967;28;20032;-73
2022/01/05 07:22:04;;;;;;;8.20;2.70;;;5.60;72.90;;;;;;5074912;28;20043;-73
2022/01/05 07:24:30;;;;;;;7.30;2.10;;;5.50;72.70;;;;;;5047801;28;20028;-73
2022/01/05 07:26:56;;;;;;;9.05;2.42;;;5.50;72.80;;;;;;5054117;28;20203;-74
2022/01/05 07:29:22;;;;;;;11.20;2.25;;;5.50;72.80;;;;;;5067597;28;20021;-74
2022/01/05 07:31:49;;;;;;;8.38;1.95;;;5.50;72.80;;;;;;5067347;28;20317;-73
2022/01/05 07:34:16;;;;;;;10.35;2.58;;;5.50;72.90;;;;;;5077119;28;20048;-73
2022/01/05 07:36:42;;;;;;;7.40;1.73;;;5.50;72.90;;;;;;5070245;28;20132;-73
2022/01/05 07:39:08;;;;;;;9.15;2.08;;;5.50;72.90;;;;;;5063644;28;20040;-73
2022/01/05 07:41:36;;;;;;;6.95;2.30;;;5.40;72.70;;;;;;5066977;28;20021;-74
2022/01/05 07:44:03;;;;;;;9.80;2.85;;;5.50;72.90;;;;;;5054903;28;20031;-74
2022/01/05 07:46:30;;;;;;;9.45;2.60;;;5.50;73.00;;;;;;5046931;28;20499;-74
2022/01/05 07:48:56;;;;;;;12.38;2.33;;;5.50;73.00;;;;;;5054545;28;20032;-73
2022/01/05 07:51:22;;;;;;;5.75;2.00;;;5.50;72.90;;;;;;5046875;28;20083;-74
2022/01/05 07:53:48;;;;;;;8.27;2.55;;;5.50;72.90;;;;;;5046302;28;20052;-73
2022/01/05 07:56:14;;;;;;;8.68;2.35;;;5.50;72.90;;;;;;5045834;28;20037;-74
2022/01/05 07:58:40;;;;;;;7.00;2.13;;;5.50;72.90;;;;;;5044976;28;20492;-73
2022/01/05 08:01:06;;;;;;;8.10;2.28;;;5.50;72.90;;;;;;5045052;28;20037;-73
2022/01/05 08:03:33;;;;;;;8.70;2.30;;;5.50;72.90;;;;;;5044264;28;20335;-73
2022/01/05 08:06:04;;;;;;;6.82;1.92;;;5.50;72.90;;;;;;5045086;28;20029;-73
2022/01/05 08:08:30;;;;;;;6.65;1.92;;;5.50;72.90;;;;;;5044769;28;20037;-74
2022/01/05 08:10:56;;;;;;;12.30;2.53;;;5.50;72.90;;;;;;5045586;28;20488;-73
2022/01/05 08:13:24;;;;;;;7.75;2.47;;;5.50;72.90;;;;;;5046444;28;20119;-73
2022/01/05 08:15:51;;;;;;;9.10;1.95;;;5.50;72.90;;;;;;5046191;28;20362;-73
2022/01/05 08:18:18;;;;;;;8.88;2.05;;;5.40;72.70;;;;;;5046272;28;20481;-73
2022/01/05 08:20:44;;;;;;;8.00;2.10;;;5.50;72.80;;;;;;5046444;28;20028;-73
2022/01/05 08:23:14;;;;;;;5.75;2.22;;;5.50;72.90;;;;;;5037947;28;20024;-73
2022/01/05 08:25:40;;;;;;;8.27;2.47;;;5.50;72.90;;;;;;5065950;28;20127;-73
2022/01/05 08:28:08;;;;;;;7.35;1.63;;;5.50;72.80;;;;;;5066312;28;20398;-73
2022/01/05 08:30:35;;;;;;;8.70;2.42;;;5.50;72.80;;;;;;5047858;28;20033;-73
2022/01/05 08:33:03;;;;;;;8.50;2.30;;;5.50;72.80;;;;;;5046423;28;20667;-73
2022/01/05 08:35:30;;;;;;;8.25;2.60;;;5.50;72.80;;;;;;5046507;28;20412;-74
2022/01/05 08:37:56;;;;;;;8.88;2.00;;;5.50;72.80;;;;;;5046504;28;20384;-73
2022/01/05 08:40:24;;;;;;;5.72;2.42;;;5.60;72.90;;;;;;5029679;28;20036;-73
2022/01/05 08:42:51;;;;;;;13.50;3.13;;;5.60;72.90;;;;;;5046866;28;20029;-73
2022/01/05 08:45:18;;;;;;;9.40;2.35;;;5.60;72.80;;;;;;5045845;28;20021;-73
2022/01/05 08:47:49;;;;;;;9.45;2.38;;;5.60;72.80;;;;;;5046480;28;20053;-74
2022/01/05 08:50:17;;;;;;;11.63;3.08;;;5.60;72.80;;;;;;5046185;28;20025;-73
2022/01/05 08:52:43;;;;;;;9.88;3.45;;;5.70;72.80;;;;;;5045518;28;20040;-74
2022/01/05 08:55:10;;;;;;;8.63;2.42;;;5.70;72.80;;;;;;5028193;28;20451;-73
2022/01/05 08:57:36;;;;;;;4.75;1.95;;;5.80;72.90;;;;;;5045736;28;20094;-74
2022/01/05 09:00:05;;;;;;;7.72;2.35;;;5.80;72.80;;;;;;5046157;28;20068;-74
2022/01/05 09:02:31;;;;;;;7.75;2.13;;;5.90;72.90;;;;;;5046141;28;20033;-74
2022/01/05 09:04:57;;;;;;;5.32;1.83;;;5.90;72.80;;;;;;5044901;28;20045;-73
2022/01/05 09:07:23;;;;;;;7.68;2.53;;;5.90;72.80;;;;;;5045751;28;20059;-73
2022/01/05 09:09:49;;;;;;;10.38;2.13;;;6.00;72.90;;;;;;5045439;28;20384;-74
2022/01/05 09:12:15;;;;;;;6.03;2.03;;;6.00;72.90;;;;;;5027960;28;20033;-74
2022/01/05 09:14:41;;;;;;;8.27;2.65;;;6.10;73.00;;;;;;5045836;28;20044;-74
2022/01/05 09:17:09;;;;;;;7.47;2.25;;;6.20;73.00;;;;;;5046230;28;20044;-74
2022/01/05 09:19:35;;;;;;;5.93;2.38;;;6.20;72.90;;;;;;5044331;28;20025;-73
2022/01/05 09:22:01;;;;;;;12.63;2.28;;;6.30;72.90;;;;;;5044282;28;20033;-74
2022/01/05 09:24:28;;;;;;;7.47;1.83;;;6.40;73.00;;;;;;5042570;28;20133;-74
2022/01/05 09:26:57;;;;;;;11.05;2.13;;;6.40;72.90;;;;;;5057764;28;20041;-74
2022/01/05 09:29:23;;;;;;;6.90;2.08;;;6.50;72.90;;;;;;5030519;28;20029;-74
2022/01/05 09:31:50;;;;;;;8.27;2.38;;;6.50;72.80;;;;;;5044756;28;20460;-74
2022/01/05 09:34:17;;;;;;;4.85;1.75;;;6.60;72.80;;;;;;5065035;28;20027;-75
2022/01/05 09:36:48;;;;;;;11.13;2.83;;;6.70;72.90;;;;;;5040675;28;20051;-74
2022/01/05 09:42:05;;;;;;;4.93;1.60;;;6.80;72.80;;;;;;5049352;28;20029;-73
2022/01/05 09:44:33;;;;;;;6.90;2.20;;;6.80;72.70;;;;;;5058221;28;20028;-74
2022/01/05 09:47:10;;;;;;;4.88;1.67;;;6.90;72.80;;;;;;5051390;28;20048;-74
2022/01/05 09:49:48;;;;;;;7.18;2.15;;;6.90;72.80;;;;;;5051472;28;20498;-74
2022/01/05 09:52:14;;;;;;;5.07;2.15;;;6.90;72.80;;;;;;5030092;28;20025;-75
2022/01/05 09:54:44;;;;;;;6.53;1.92;;;7.00;72.80;;;;;;5059734;28;20044;-74
2022/01/05 09:57:11;;;;;;;6.05;2.00;;;7.00;72.70;;;;;;5067514;28;20503;-76
2022/01/05 09:59:39;;;;;;;5.97;2.05;;;7.10;72.80;;;;;;5069208;28;20028;-74
2022/01/05 10:02:06;;;;;;;4.75;1.73;;;7.10;72.70;;;;;;5048534;28;20051;-75
2022/01/05 10:04:35;;;;;;;8.48;1.70;;;7.10;72.60;;;;;;5048681;28;20060;-73
2022/01/05 10:07:01;;;;;;;8.63;2.15;;;7.10;72.60;;;;;;5053331;28;20488;-74
2022/01/05 10:09:27;;;;;;;4.88;1.55;;;7.10;72.60;;;;;;5051547;28;20338;-74
2022/01/05 10:11:53;;;;;;;6.80;2.35;;;7.10;72.60;;;;;;5052042;28;20029;-74
2022/01/05 10:14:18;;;;;;;5.85;1.67;;;7.10;72.60;;;;;;5051455;28;21074;-74
2022/01/05 10:17:10;;;;;;;4.95;1.50;;;7.10;72.60;;;;;;5061663;28;20463;-74
2022/01/05 10:19:37;;;;;;;5.80;1.70;;;7.10;72.60;;;;;;5051885;28;20044;-74
2022/01/05 10:22:24;;;;;;;4.55;2.08;;;7.10;72.50;;;;;;5049503;28;20025;-74
2022/01/05 10:24:50;;;;;;;6.07;1.20;;;7.10;72.50;;;;;;5048768;28;20118;-74
2022/01/05 10:27:20;;;;;;;5.70;1.83;;;7.10;72.50;;;;;;5048978;28;20382;-74
2022/01/05 10:29:55;;;;;;;3.63;1.45;;;7.10;72.50;;;;;;5048240;28;20036;-74
2022/01/05 10:32:22;;;;;;;7.47;1.42;;;7.10;72.40;;;;;;5048745;28;20045;-74
2022/01/05 10:35:14;;;;;;;7.47;1.60;;;7.10;72.40;;;;;;5048771;28;20036;-74
2022/01/05 10:37:45;;;;;;;4.05;1.52;;;7.10;72.30;;;;;;5031109;28;20444;-74
2022/01/05 10:40:19;;;;;;;4.28;1.60;;;7.10;72.30;;;;;;5048097;28;20068;-74
2022/01/05 10:42:47;;;;;;;6.13;1.63;;;7.10;72.30;;;;;;5048045;28;20033;-74
2022/01/05 10:45:17;;;;;;;7.55;2.05;;;7.10;72.30;;;;;;5047101;28;20225;-74
2022/01/05 10:48:04;;;;;;;7.10;1.77;;;7.20;72.40;;;;;;5048010;28;20699;-73
2022/01/05 10:50:30;;;;;;;4.68;1.25;;;7.10;72.20;;;;;;5030618;28;20029;-74
2022/01/05 10:52:57;;;;;;;8.00;2.20;;;7.20;72.30;;;;;;5048851;28;20039;-74
2022/01/05 10:55:26;;;;;;;6.65;1.65;;;7.20;72.30;;;;;;5046505;28;20124;-74
2022/01/05 10:58:02;;;;;;;3.40;1.55;;;7.30;72.40;;;;;;5048515;28;20037;-74
2022/01/05 11:00:36;;;;;;;6.95;2.97;;;7.30;72.30;;;;;;5047934;28;20508;-74
2022/01/05 11:03:22;;;;;;;8.73;2.00;;;7.40;72.30;;;;;;5047630;28;20493;-75
2022/01/05 11:06:08;;;;;;;9.63;1.90;;;7.50;72.30;;;;;;5047440;28;20029;-75
2022/01/05 11:08:58;;;;;;;7.75;2.28;;;7.60;72.30;;;;;;5048538;28;20507;-74
2022/01/05 11:11:41;;;;;;;7.72;1.90;;;7.60;72.00;;;;;;5047762;28;20025;-74
2022/01/05 11:14:31;;;;;;;7.15;2.22;;;7.70;72.10;;;;;;5046417;28;20064;-74
2022/01/05 11:16:59;;;;;;;7.53;2.55;;;7.70;71.90;;;;;;5029562;28;20032;-75
2022/01/05 11:19:33;;;;;;;5.68;1.60;;;7.80;71.90;;;;;;5047536;28;20083;-74
2022/01/05 11:21:59;;;;;;;6.47;1.83;;;7.80;71.80;;;;;;5047500;28;20033;-74
2022/01/05 11:24:26;;;;;;;4.85;1.60;;;7.80;71.80;;;;;;5048316;28;20369;-74
2022/01/05 11:26:53;;;;;;;8.48;1.63;;;7.80;71.80;;;;;;5050019;28;20032;-74
2022/01/05 11:29:20;;;;;;;7.80;1.73;;;7.80;71.70;;;;;;5067287;28;20085;-74
2022/01/05 11:31:46;;;;;;;3.47;2.00;;;7.80;71.70;;;;;;5067350;28;20036;-74
2022/01/05 11:34:13;;;;;;;6.03;1.98;;;7.70;71.60;;;;;;5066936;28;20036;-73
2022/01/05 11:36:42;;;;;;;7.25;1.67;;;7.70;71.70;;;;;;5067782;28;20067;-74
2022/01/05 11:39:08;;;;;;;3.85;1.65;;;7.80;71.80;;;;;;5048742;28;20028;-74
2022/01/05 11:41:41;;;;;;;8.68;2.45;;;7.80;71.80;;;;;;5044930;28;20097;-74
2022/01/05 11:44:08;;;;;;;6.35;1.67;;;7.70;71.60;;;;;;5058804;28;20247;-75
2022/01/05 11:46:35;;;;;;;10.57;1.90;;;7.70;71.60;;;;;;5047469;28;20431;-75
2022/01/05 11:49:06;;;;;;;5.45;1.90;;;7.70;71.60;;;;;;5050092;28;20029;-74
2022/01/05 11:51:42;;;;;;;5.43;1.55;;;7.80;71.80;;;;;;5067154;28;20311;-76
2022/01/05 11:54:18;;;;;;;5.00;1.80;;;7.70;71.60;;;;;;5031486;28;20078;-75
2022/01/05 11:56:57;;;;;;;5.85;2.00;;;7.80;71.80;;;;;;5046603;28;20051;-75
2022/01/05 11:59:35;;;;;;;8.73;2.60;;;7.80;71.80;;;;;;5046740;28;20033;-75
2022/01/05 12:02:14;;;;;;;8.20;3.00;;;7.80;71.70;;;;;;5046559;28;20041;-75
2022/01/05 12:04:56;;;;;;;11.32;2.15;;;7.80;71.70;;;;;;5046792;28;20056;-75
2022/01/05 12:07:45;;;;;;;5.88;1.65;;;7.90;71.80;;;;;;5046906;28;20079;-74
2022/01/05 12:10:16;;;;;;;10.13;2.22;;;7.90;71.70;;;;;;5029465;28;20033;-73
2022/01/05 12:13:06;;;;;;;4.97;1.55;;;7.90;71.70;;;;;;5046150;28;20123;-73
2022/01/05 12:15:51;;;;;;;8.95;2.72;;;7.90;71.50;;;;;;5047406;28;20083;-75
2022/01/05 12:18:22;;;;;;;6.13;1.90;;;8.00;71.70;;;;;;5037621;28;20252;-73
2022/01/05 12:20:48;;;;;;;5.18;1.60;;;8.00;71.60;;;;;;5067080;28;20052;-73
2022/01/05 12:23:22;;;;;;;8.32;2.70;;;8.00;71.60;;;;;;5057193;28;20069;-73
2022/01/05 12:26:05;;;;;;;4.57;1.40;;;8.00;71.50;;;;;;5047081;28;20044;-73
2022/01/05 12:28:36;;;;;;;6.55;1.90;;;8.00;71.40;;;;;;5046245;28;20056;-74
2022/01/05 12:31:03;;;;;;;6.07;2.30;;;8.00;71.40;;;;;;5046896;28;20105;-73
2022/01/05 12:33:55;;;;;;;12.50;2.10;;;8.00;71.40;;;;;;5046898;28;20043;-75
2022/01/05 12:36:35;;;;;;;7.10;1.67;;;8.10;71.70;;;;;;5045676;28;20111;-74
2022/01/05 12:39:04;;;;;;;5.45;1.90;;;8.20;72.00;;;;;;5047035;28;20037;-74
2022/01/05 12:41:36;;;;;;;7.05;2.83;;;8.20;71.90;;;;;;5046025;28;20021;-74
2022/01/05 12:44:11;;;;;;;7.90;2.30;;;8.30;72.00;;;;;;5040308;28;20110;-74
2022/01/05 12:46:49;;;;;;;3.92;1.33;;;8.30;71.90;;;;;;5049148;28;20468;-74
2022/01/05 12:49:47;;;;;;;5.82;1.90;;;8.40;72.00;;;;;;5050344;28;20216;-76
2022/01/05 12:52:15;;;;;;;7.00;1.70;;;8.40;72.00;;;;;;5011117;28;20055;-74
2022/01/05 12:54:44;;;;;;;6.75;2.03;;;8.40;71.90;;;;;;5066033;28;20384;-73
2022/01/05 12:57:16;;;;;;;7.07;2.17;;;8.40;71.90;;;;;;5065162;28;20020;-74
2022/01/05 12:59:47;;;;;;;8.90;3.30;;;8.50;72.10;;;;;;5065559;28;20454;-74
2022/01/05 13:02:23;;;;;;;5.90;1.63;;;8.50;72.00;;;;;;5065790;28;20028;-74
2022/01/05 13:04:50;;;;;;;5.75;1.95;;;8.50;72.00;;;;;;5066373;28;20025;-74